LIRNLYTV

Guest
Details From LIRN - Naples Capodichino
To LYTV - Tivat
Flight Number -
Tags generated
Created
Modified
Stats Distance 231 nm / 428 km
Max Altitude 29,400 ft / 8,961 m
Waypoints 4
Social Downloads 1
Likes 0
Share VATSIM

Download

Looking for another format? Having issues loading an existing format? Contact us
Advertisement - Login to hide

Notes

Basic altitude profile: - Ascent Rate: 2500ft/min - Ascent Speed: 250kts - Cruise Altitude: 35000ft - Cruise Speed: 420kts - Descent Rate: 1500ft/min - Descent Speed: 250kts Options: - Use NATs: yes - Use PACOTS: yes - Use low airways: yes - Use high airways: yes

Route

LIRN TOPNO UP748 BANAV LYTV

ID Type Via Altitude Latitude Longitude Leg Dist Tot Dist Heading (true) Name
O LIRN APT - 0 ft / 0 m 40.88603˚ 14.29078˚ - 0 nm - Naples Capodichino
TOPNO FIX - 29,400 ft / 8,961 m 40.95167˚ 16.10778˚ 82 nm 82 nm 87° / 88° -
BANAV FIX UP748 (AWY-HI) 19,500 ft / 5,944 m 41.72861˚ 17.01111˚ 61 nm 144 nm 41° / 41° -
O LYTV APT - 0 ft / 0 m 42.40466˚ 18.72329˚ 86 nm 230 nm 61° / 63° Tivat

Altitude Profile

Advertisement - Login to hide

Weather


0- 5 10 15 20 25 30 35+ Temperature / ° C

Clouds and Precipitation
Forecast for 2018-06-18 00:00 UTC. Updated 4 hours ago

Ground ~20,000 ft ~40,000 ft Winds

LIRN

Details ICAO LIRN (NAP)
Name Naples Capodichino
Region Italy
Timezone Europe/Rome (UTC+2.0)
Stats Elevation 294 ft / 90 m (AMSL)
Location 40.886032° 14.290783°
Runways 1
Magnetic Variation 3.360° E

METAR

LIRN 180120Z 09002KT 9999 FEW040 BKN070 21/19 Q1012 NOSIG

Decode

TAF

TAF LIRN 172300Z 1800/1824 VRB05KT 9999 SCT045 BECMG 1809/1811 26010KT TEMPO 1813/1817 TSRA BECMG 1816/1818 04008KT

Decode

Departure Runways

ID Width Length Bearing (true) Bearing (mag) Surface Threshold Offset Overrun Length
06 148 ft / 45 m 8,612 ft / 2,625 m 58.03° 54.67° Asphalt 1,309 ft / 399 m 0 ft / 0 m
24 148 ft / 45 m 8,612 ft / 2,625 m 238.05° 234.69° Asphalt 624 ft / 190 m 0 ft / 0 m

LYTV

Details ICAO LYTV (TIV)
Name Tivat
Region Serbia and Montenegro
Timezone Europe/Podgorica (UTC+2.0)
Stats Elevation 20 ft / 6 m (AMSL)
Location 42.404657° 18.723295°
Runways 1
Magnetic Variation 4.216° E

METAR

LYTV 180130Z 00000KT CAVOK 18/17 Q1009

Decode

TAF

TAF LYTV 172300Z 1800/1824 03008KT 9999 SCT030 TX29/1813Z TN16/1803Z PROB30 TEMPO 1800/1807 TSRA FEW030CB SCT040 TEMPO 1810/1817 TS SCT030CB SCT040 BECMG 1817/1819 36018KT

Decode

Destination Runways

ID Width Length Bearing (true) Bearing (mag) Surface Threshold Offset Overrun Length
14 148 ft / 45 m 8,206 ft / 2,501 m 139.03° 134.81° Asphalt 300 ft / 91 m 0 ft / 0 m
32 148 ft / 45 m 8,206 ft / 2,501 m 319.04° 314.82° Asphalt 300 ft / 91 m 0 ft / 0 m

Approach Navaids

Runway Type Ident Frequency Range Bearing (true) Bearing (mag) Slope Elevation
32 Localiser TIV 111.30 MHz 50 nm / 93 km 339.00° 334.78° - 56 ft / 17 m (AMSL)
32 DME TIV 111.30 MHz 18 nm / 33 km - - - 49 ft / 15 m (AMSL)

Popular Alternatives